sensor_id;sensor_type;location;lat;lon;timestamp;pressure;altitude;pressure_sealevel;temperature;humidity
46724;BME280;32463;48.298;11.620;2023-04-23T00:00:17;95730.22;;;13.12;100.00
46724;BME280;32463;48.298;11.620;2023-04-23T00:02:45;95732.03;;;13.12;100.00
46724;BME280;32463;48.298;11.620;2023-04-23T00:05:14;95725.22;;;13.11;100.00
46724;BME280;32463;48.298;11.620;2023-04-23T00:07:41;95736.81;;;13.15;100.00
46724;BME280;32463;48.298;11.620;2023-04-23T00:10:08;95731.41;;;13.10;100.00
46724;BME280;32463;48.298;11.620;2023-04-23T00:12:36;95728.81;;;13.10;100.00
46724;BME280;32463;48.298;11.620;2023-04-23T00:15:04;95722.00;;;13.09;100.00
46724;BME280;32463;48.298;11.620;2023-04-23T00:17:31;95728.19;;;13.08;100.00
46724;BME280;32463;48.298;11.620;2023-04-23T00:19:58;95719.16;;;13.04;100.00
46724;BME280;32463;48.298;11.620;2023-04-23T00:22:24;95727.56;;;13.06;100.00
46724;BME280;32463;48.298;11.620;2023-04-23T00:24:51;95721.56;;;13.05;100.00
46724;BME280;32463;48.298;11.620;2023-04-23T00:27:19;95720.75;;;13.05;100.00
46724;BME280;32463;48.298;11.620;2023-04-23T00:29:46;95719.16;;;13.04;100.00
46724;BME280;32463;48.298;11.620;2023-04-23T00:32:12;95721.75;;;13.04;100.00
46724;BME280;32463;48.298;11.620;2023-04-23T00:34:40;95718.53;;;13.02;100.00
46724;BME280;32463;48.298;11.620;2023-04-23T00:37:06;95709.50;;;12.98;100.00
46724;BME280;32463;48.298;11.620;2023-04-23T00:39:34;95720.28;;;12.95;100.00
46724;BME280;32463;48.298;11.620;2023-04-23T00:42:01;95713.81;;;12.91;100.00
46724;BME280;32463;48.298;11.620;2023-04-23T00:44:35;95718.19;;;12.84;100.00
46724;BME280;32463;48.298;11.620;2023-04-23T00:47:02;95718.19;;;12.84;100.00
46724;BME280;32463;48.298;11.620;2023-04-23T00:49:29;95708.16;;;12.80;100.00
46724;BME280;32463;48.298;11.620;2023-04-23T00:51:56;95708.16;;;12.80;100.00
46724;BME280;32463;48.298;11.620;2023-04-23T00:54:22;95703.34;;;12.77;100.00
46724;BME280;32463;48.298;11.620;2023-04-23T00:56:49;95712.94;;;12.77;100.00
46724;BME280;32463;48.298;11.620;2023-04-23T00:59:15;95707.91;;;12.75;100.00
46724;BME280;32463;48.298;11.620;2023-04-23T01:01:42;95710.88;;;12.72;100.00
46724;BME280;32463;48.298;11.620;2023-04-23T01:04:11;95709.28;;;12.71;100.00
46724;BME280;32463;48.298;11.620;2023-04-23T01:06:40;95713.84;;;12.69;100.00
46724;BME280;32463;48.298;11.620;2023-04-23T01:09:07;95707.84;;;12.69;100.00
46724;BME280;32463;48.298;11.620;2023-04-23T01:11:38;95714.66;;;12.70;100.00
46724;BME280;32463;48.298;11.620;2023-04-23T01:14:05;95706.06;;;12.69;100.00
46724;BME280;32463;48.298;11.620;2023-04-23T01:16:31;95705.63;;;12.66;100.00
46724;BME280;32463;48.298;11.620;2023-04-23T01:18:58;95702.59;;;12.62;100.00
46724;BME280;32463;48.298;11.620;2023-04-23T01:21:25;95700.34;;;12.59;100.00
46724;BME280;32463;48.298;11.620;2023-04-23T01:23:51;95703.31;;;12.56;100.00
46724;BME280;32463;48.298;11.620;2023-04-23T01:26:18;95695.91;;;12.53;100.00
46724;BME280;32463;48.298;11.620;2023-04-23T01:28:44;95697.09;;;12.51;100.00
46724;BME280;32463;48.298;11.620;2023-04-23T01:31:11;95698.25;;;12.48;100.00
46724;BME280;32463;48.298;11.620;2023-04-23T01:33:39;95696.84;;;12.45;100.00
46724;BME280;32463;48.298;11.620;2023-04-23T01:36:07;95701.84;;;12.47;100.00
46724;BME280;32463;48.298;11.620;2023-04-23T01:38:34;95703.91;;;12.52;100.00
46724;BME280;32463;48.298;11.620;2023-04-23T01:41:01;95707.50;;;12.51;100.00
46724;BME280;32463;48.298;11.620;2023-04-23T01:43:28;95701.50;;;12.50;100.00
46724;BME280;32463;48.298;11.620;2023-04-23T01:45:54;95697.91;;;12.51;100.00
46724;BME280;32463;48.298;11.620;2023-04-23T01:48:21;95701.13;;;12.53;100.00
46724;BME280;32463;48.298;11.620;2023-04-23T01:50:47;95697.91;;;12.51;100.00
46724;BME280;32463;48.298;11.620;2023-04-23T01:53:15;95704.72;;;12.52;100.00
46724;BME280;32463;48.298;11.620;2023-04-23T01:55:44;95708.66;;;12.48;100.00
46724;BME280;32463;48.298;11.620;2023-04-23T01:58:12;95703.84;;;12.45;100.00
46724;BME280;32463;48.298;11.620;2023-04-23T02:00:39;95710.38;;;12.41;100.00
46724;BME280;32463;48.298;11.620;2023-04-23T02:03:05;95710.50;;;12.33;100.00
46724;BME280;32463;48.298;11.620;2023-04-23T02:05:34;95710.25;;;12.28;100.00
46724;BME280;32463;48.298;11.620;2023-04-23T02:08:01;95711.19;;;12.20;100.00
46724;BME280;32463;48.298;11.620;2023-04-23T02:10:28;95707.53;;;12.14;100.00
46724;BME280;32463;48.298;11.620;2023-04-23T02:12:57;95702.69;;;12.11;100.00
46724;BME280;32463;48.298;11.620;2023-04-23T02:15:24;95713.88;;;12.12;100.00
46724;BME280;32463;48.298;11.620;2023-04-23T02:17:50;95709.06;;;12.09;100.00
46724;BME280;32463;48.298;11.620;2023-04-23T02:20:17;95713.19;;;12.03;100.00
46724;BME280;32463;48.298;11.620;2023-04-23T02:22:45;95710.50;;;11.97;100.00
46724;BME280;32463;48.298;11.620;2023-04-23T02:25:12;95708.03;;;11.89;100.00
46724;BME280;32463;48.298;11.620;2023-04-23T02:27:40;95717.06;;;11.78;100.00
46724;BME280;32463;48.298;11.620;2023-04-23T02:30:08;95721.34;;;11.71;100.00
46724;BME280;32463;48.298;11.620;2023-04-23T02:32:36;95716.25;;;11.63;100.00
46724;BME280;32463;48.298;11.620;2023-04-23T02:35:03;95717.50;;;11.52;100.00
46724;BME280;32463;48.298;11.620;2023-04-23T02:37:34;95713.84;;;11.46;100.00
46724;BME280;32463;48.298;11.620;2023-04-23T02:40:01;95719.38;;;11.43;100.00
46724;BME280;32463;48.298;11.620;2023-04-23T02:42:29;95720.72;;;11.39;100.00
46724;BME280;32463;48.298;11.620;2023-04-23T02:44:55;95730.47;;;11.37;100.00
46724;BME280;32463;48.298;11.620;2023-04-23T02:47:22;95727.88;;;11.37;100.00
46724;BME280;32463;48.298;11.620;2023-04-23T02:49:48;95730.13;;;11.40;100.00
46724;BME280;32463;48.298;11.620;2023-04-23T02:52:15;95726.91;;;11.38;100.00
46724;BME280;32463;48.298;11.620;2023-04-23T02:54:41;95726.91;;;11.38;100.00
46724;BME280;32463;48.298;11.620;2023-04-23T02:57:08;95720.44;;;11.34;100.00
46724;BME280;32463;48.298;11.620;2023-04-23T02:59:37;95724.41;;;11.30;100.00
46724;BME280;32463;48.298;11.620;2023-04-23T03:02:04;95735.59;;;11.31;100.00
46724;BME280;32463;48.298;11.620;2023-04-23T03:04:30;95731.56;;;11.28;100.00
46724;BME280;32463;48.298;11.620;2023-04-23T03:06:58;95731.47;;;11.22;100.00
46724;BME280;32463;48.298;11.620;2023-04-23T03:09:24;95733.88;;;11.23;100.00
46724;BME280;32463;48.298;11.620;2023-04-23T03:11:50;95734.50;;;11.25;100.00
46724;BME280;32463;48.298;11.620;2023-04-23T03:14:17;95732.25;;;11.22;100.00
46724;BME280;32463;48.298;11.620;2023-04-23T03:16:43;95734.56;;;11.17;100.00
46724;BME280;32463;48.298;11.620;2023-04-23T03:19:10;95733.31;;;11.13;100.00
46724;BME280;32463;48.298;11.620;2023-04-23T03:21:36;95738.03;;;11.09;100.00
46724;BME280;32463;48.298;11.620;2023-04-23T03:24:03;95735.63;;;11.08;100.00
46724;BME280;32463;48.298;11.620;2023-04-23T03:26:29;95727.22;;;11.06;100.00
46724;BME280;32463;48.298;11.620;2023-04-23T03:28:56;95734.81;;;11.07;100.00
46724;BME280;32463;48.298;11.620;2023-04-23T03:31:23;95728.81;;;11.07;100.00
46724;BME280;32463;48.298;11.620;2023-04-23T03:33:49;95733.38;;;11.05;100.00
46724;BME280;32463;48.298;11.620;2023-04-23T03:36:16;95732.75;;;11.03;100.00
46724;BME280;32463;48.298;11.620;2023-04-23T03:38:42;95731.50;;;10.99;100.00
46724;BME280;32463;48.298;11.620;2023-04-23T03:41:09;95731.88;;;10.96;100.00
46724;BME280;32463;48.298;11.620;2023-04-23T03:43:36;95740.63;;;10.95;100.00
46724;BME280;32463;48.298;11.620;2023-04-23T03:46:08;95742.59;;;10.93;100.00
46724;BME280;32463;48.298;11.620;2023-04-23T03:48:34;95744.53;;;10.91;100.00
46724;BME280;32463;48.298;11.620;2023-04-23T03:51:01;95745.00;;;10.94;100.00
46724;BME280;32463;48.298;11.620;2023-04-23T03:53:27;95744.19;;;10.94;100.00
46724;BME280;32463;48.298;11.620;2023-04-23T03:55:54;95744.19;;;10.94;100.00
46724;BME280;32463;48.298;11.620;2023-04-23T03:58:20;95742.59;;;10.93;100.00
46724;BME280;32463;48.298;11.620;2023-04-23T04:00:47;95754.56;;;10.94;100.00
46724;BME280;32463;48.298;11.620;2023-04-23T04:03:13;95759.41;;;10.97;100.00
46724;BME280;32463;48.298;11.620;2023-04-23T04:05:40;95762.00;;;10.97;100.00
46724;BME280;32463;48.298;11.620;2023-04-23T04:08:06;95767.19;;;10.97;100.00
46724;BME280;32463;48.298;11.620;2023-04-23T04:10:32;95767.03;;;10.98;100.00
46724;BME280;32463;48.298;11.620;2023-04-23T04:12:59;95771.03;;;11.01;100.00
46724;BME280;32463;48.298;11.620;2023-04-23T04:15:25;95768.63;;;10.99;100.00
46724;BME280;32463;48.298;11.620;2023-04-23T04:17:52;95771.66;;;11.03;100.00
46724;BME280;32463;48.298;11.620;2023-04-23T04:20:18;95769.97;;;11.10;100.00
46724;BME280;32463;48.298;11.620;2023-04-23T04:22:45;95782.78;;;11.11;100.00
46724;BME280;32463;48.298;11.620;2023-04-23T04:25:11;95782.31;;;11.08;100.00
46724;BME280;32463;48.298;11.620;2023-04-23T04:27:38;95785.19;;;11.13;100.00
46724;BME280;32463;48.298;11.620;2023-04-23T04:30:06;95791.66;;;11.17;100.00
46724;BME280;32463;48.298;11.620;2023-04-23T04:32:33;95789.94;;;11.09;100.00
46724;BME280;32463;48.298;11.620;2023-04-23T04:34:59;95790.19;;;11.00;100.00
46724;BME280;32463;48.298;11.620;2023-04-23T04:37:26;95794.56;;;10.99;100.00
46724;BME280;32463;48.298;11.620;2023-04-23T04:39:53;95790.38;;;11.13;100.00
46724;BME280;32463;48.298;11.620;2023-04-23T04:42:19;95785.44;;;11.03;100.00
46724;BME280;32463;48.298;11.620;2023-04-23T04:44:46;95792.56;;;11.01;100.00
46724;BME280;32463;48.298;11.620;2023-04-23T04:47:12;95798.78;;;11.00;100.00
46724;BME280;32463;48.298;11.620;2023-04-23T04:49:40;95791.50;;;10.96;100.00
46724;BME280;32463;48.298;11.620;2023-04-23T04:52:06;95790.53;;;10.97;100.00
46724;BME280;32463;48.298;11.620;2023-04-23T04:54:33;95793.75;;;10.99;100.00
46724;BME280;32463;48.298;11.620;2023-04-23T04:56:59;95787.03;;;11.04;100.00
46724;BME280;32463;48.298;11.620;2023-04-23T04:59:26;95794.31;;;11.09;100.00
46724;BME280;32463;48.298;11.620;2023-04-23T05:01:53;95794.41;;;11.16;100.00
46724;BME280;32463;48.298;11.620;2023-04-23T05:04:20;95794.31;;;11.09;100.00
46724;BME280;32463;48.298;11.620;2023-04-23T05:06:46;95799.03;;;11.05;100.00
46724;BME280;32463;48.298;11.620;2023-04-23T05:09:12;95791.53;;;11.10;100.00
46724;BME280;32463;48.298;11.620;2023-04-23T05:11:39;95796.28;;;11.07;100.00
46724;BME280;32463;48.298;11.620;2023-04-23T05:14:06;95796.28;;;11.07;100.00
46724;BME280;32463;48.298;11.620;2023-04-23T05:16:32;95804.50;;;11.10;100.00
46724;BME280;32463;48.298;11.620;2023-04-23T05:18:59;95806.47;;;11.08;100.00
46724;BME280;32463;48.298;11.620;2023-04-23T05:21:25;95814.72;;;11.12;100.00
46724;BME280;32463;48.298;11.620;2023-04-23T05:23:55;95815.75;;;11.03;100.00
46724;BME280;32463;48.298;11.620;2023-04-23T05:26:21;95823.81;;;11.08;100.00
46724;BME280;32463;48.298;11.620;2023-04-23T05:28:47;95829.81;;;11.08;100.00
46724;BME280;32463;48.298;11.620;2023-04-23T05:31:14;95837.44;;;11.10;100.00
46724;BME280;32463;48.298;11.620;2023-04-23T05:33:40;95835.47;;;11.12;100.00
46724;BME280;32463;48.298;11.620;2023-04-23T05:36:09;95833.50;;;11.14;100.00
46724;BME280;32463;48.298;11.620;2023-04-23T05:38:38;95839.34;;;11.16;100.00
46724;BME280;32463;48.298;11.620;2023-04-23T05:41:04;95841.63;;;11.11;100.00
46724;BME280;32463;48.298;11.620;2023-04-23T05:43:32;95847.47;;;11.13;100.00
46724;BME280;32463;48.298;11.620;2023-04-23T05:45:58;95853.00;;;11.10;100.00
46724;BME280;32463;48.298;11.620;2023-04-23T05:48:25;95846.88;;;11.03;100.00
46724;BME280;32463;48.298;11.620;2023-04-23T05:50:52;95848.25;;;11.13;100.00
46724;BME280;32463;48.298;11.620;2023-04-23T05:53:19;95846.53;;;11.06;100.00
46724;BME280;32463;48.298;11.620;2023-04-23T05:55:45;95846.88;;;11.03;100.00
46724;BME280;32463;48.298;11.620;2023-04-23T05:58:12;95851.84;;;11.12;100.00
46724;BME280;32463;48.298;11.620;2023-04-23T06:00:39;95843.13;;;11.05;100.00
46724;BME280;32463;48.298;11.620;2023-04-23T06:03:06;95853.00;;;11.10;100.00
46724;BME280;32463;48.298;11.620;2023-04-23T06:05:32;95847.47;;;11.13;100.00
46724;BME280;32463;48.298;11.620;2023-04-23T06:08:00;95854.59;;;11.11;100.00
46724;BME280;32463;48.298;11.620;2023-04-23T06:10:26;95855.94;;;11.07;100.00
46724;BME280;32463;48.298;11.620;2023-04-23T06:12:53;95855.03;;;11.00;100.00
46724;BME280;32463;48.298;11.620;2023-04-23T06:15:20;95852.44;;;11.00;100.00
46724;BME280;32463;48.298;11.620;2023-04-23T06:17:51;95854.81;;;11.01;100.00
46724;BME280;32463;48.298;11.620;2023-04-23T06:20:17;95849.94;;;11.06;100.00
46724;BME280;32463;48.298;11.620;2023-04-23T06:22:44;95855.28;;;11.05;100.00
46724;BME280;32463;48.298;11.620;2023-04-23T06:25:10;95859.16;;;11.09;100.00
46724;BME280;32463;48.298;11.620;2023-04-23T06:27:37;95850.41;;;11.10;100.00
46724;BME280;32463;48.298;11.620;2023-04-23T06:30:06;95852.66;;;11.13;100.00
46724;BME280;32463;48.298;11.620;2023-04-23T06:32:32;95862.72;;;11.08;100.00
46724;BME280;32463;48.298;11.620;2023-04-23T06:34:59;95859.00;;;11.10;100.00
46724;BME280;32463;48.298;11.620;2023-04-23T06:37:25;95849.59;;;11.09;100.00
46724;BME280;32463;48.298;11.620;2023-04-23T06:39:52;95859.44;;;11.14;100.00
46724;BME280;32463;48.298;11.620;2023-04-23T06:42:19;95852.66;;;11.13;100.00
46724;BME280;32463;48.298;11.620;2023-04-23T06:44:45;95852.34;;;11.08;100.00
46724;BME280;32463;48.298;11.620;2023-04-23T06:47:12;95844.22;;;11.11;100.00
46724;BME280;32463;48.298;11.620;2023-04-23T06:49:39;95850.00;;;10.98;100.00
46724;BME280;32463;48.298;11.620;2023-04-23T06:52:06;95860.44;;;10.90;100.00
46724;BME280;32463;48.298;11.620;2023-04-23T06:54:32;95854.47;;;10.82;100.00
46724;BME280;32463;48.298;11.620;2023-04-23T06:56:59;95847.38;;;10.75;100.00
46724;BME280;32463;48.298;11.620;2023-04-23T06:59:25;95843.66;;;10.78;100.00
46724;BME280;32463;48.298;11.620;2023-04-23T07:01:52;95849.63;;;10.78;100.00
46724;BME280;32463;48.298;11.620;2023-04-23T07:04:18;95854.59;;;10.65;100.00
46724;BME280;32463;48.298;11.620;2023-04-23T07:06:44;95853.31;;;10.61;100.00
46724;BME280;32463;48.298;11.620;2023-04-23T07:09:11;95865.97;;;10.56;100.00
46724;BME280;32463;48.298;11.620;2023-04-23T07:11:38;95854.97;;;10.54;100.00
46724;BME280;32463;48.298;11.620;2023-04-23T07:14:04;95856.88;;;10.60;100.00
46724;BME280;32463;48.298;11.620;2023-04-23T07:16:31;95852.53;;;10.84;100.00
46724;BME280;32463;48.298;11.620;2023-04-23T07:19:02;95850.22;;;10.89;100.00
46724;BME280;32463;48.298;11.620;2023-04-23T07:21:28;95843.94;;;10.83;100.00
46724;BME280;32463;48.298;11.620;2023-04-23T07:23:58;95850.22;;;10.89;100.00
46724;BME280;32463;48.298;11.620;2023-04-23T07:26:27;95848.28;;;10.91;100.00
46724;BME280;32463;48.298;11.620;2023-04-23T07:28:53;95851.81;;;10.98;100.00
46724;BME280;32463;48.298;11.620;2023-04-23T07:31:20;95844.03;;;10.98;100.00
46724;BME280;32463;48.298;11.620;2023-04-23T07:33:48;95841.75;;;10.95;100.00
46724;BME280;32463;48.298;11.620;2023-04-23T07:36:14;95843.31;;;11.04;100.00
46724;BME280;32463;48.298;11.620;2023-04-23T07:38:41;95850.06;;;11.13;100.00
46724;BME280;32463;48.298;11.620;2023-04-23T07:41:08;95848.16;;;11.07;100.00
46724;BME280;32463;48.298;11.620;2023-04-23T07:43:34;95847.47;;;11.13;100.00
46724;BME280;32463;48.298;11.620;2023-04-23T07:46:01;95849.38;;;11.19;100.00
46724;BME280;32463;48.298;11.620;2023-04-23T07:48:27;95850.97;;;11.20;100.00
46724;BME280;32463;48.298;11.620;2023-04-23T07:50:54;95850.63;;;11.23;100.00
46724;BME280;32463;48.298;11.620;2023-04-23T07:53:21;95848.03;;;11.23;100.00
46724;BME280;32463;48.298;11.620;2023-04-23T07:55:47;95847.56;;;11.20;100.00
46724;BME280;32463;48.298;11.620;2023-04-23T07:58:14;95850.69;;;11.15;100.00
46724;BME280;32463;48.298;11.620;2023-04-23T08:00:43;95850.06;;;11.13;100.00
46724;BME280;32463;48.298;11.620;2023-04-23T08:03:10;95850.69;;;11.15;100.00
46724;BME280;32463;48.298;11.620;2023-04-23T08:05:36;95858.66;;;11.13;100.00
46724;BME280;32463;48.298;11.620;2023-04-23T08:08:05;95849.06;;;11.14;100.00
46724;BME280;32463;48.298;11.620;2023-04-23T08:10:33;95853.81;;;11.10;100.00
46724;BME280;32463;48.298;11.620;2023-04-23T08:12:59;95847.25;;;11.00;100.00
46724;BME280;32463;48.298;11.620;2023-04-23T08:15:26;95854.03;;;11.01;100.00
46724;BME280;32463;48.298;11.620;2023-04-23T08:17:54;95850.81;;;10.99;100.00
46724;BME280;32463;48.298;11.620;2023-04-23T08:20:20;95851.44;;;11.01;100.00
46724;BME280;32463;48.298;11.620;2023-04-23T08:22:47;95856.75;;;11.07;100.00
46724;BME280;32463;48.298;11.620;2023-04-23T08:25:14;95858.88;;;11.04;100.00
46724;BME280;32463;48.298;11.620;2023-04-23T08:27:40;95854.03;;;11.01;100.00
46724;BME280;32463;48.298;11.620;2023-04-23T08:30:07;95853.69;;;11.04;100.00
46724;BME280;32463;48.298;11.620;2023-04-23T08:32:34;95859.91;;;11.18;100.00
46724;BME280;32463;48.298;11.620;2023-04-23T08:35:00;95855.53;;;11.18;100.00
46724;BME280;32463;48.298;11.620;2023-04-23T08:37:27;95856.00;;;11.22;100.00
46724;BME280;32463;48.298;11.620;2023-04-23T08:39:54;95856.13;;;11.28;100.00
46724;BME280;32463;48.298;11.620;2023-04-23T08:42:37;95842.41;;;11.34;100.00
46724;BME280;32463;48.298;11.620;2023-04-23T08:45:04;95837.50;;;11.39;100.00
46724;BME280;32463;48.298;11.620;2023-04-23T08:47:31;95826.72;;;11.51;100.00
46724;BME280;32463;48.298;11.620;2023-04-23T08:49:58;95819.34;;;11.77;100.00
46724;BME280;32463;48.298;11.620;2023-04-23T08:52:26;95815.56;;;11.94;100.00
46724;BME280;32463;48.298;11.620;2023-04-23T08:54:59;95817.63;;;12.13;100.00
46724;BME280;32463;48.298;11.620;2023-04-23T08:57:26;95823.47;;;12.16;100.00
46724;BME280;32463;48.298;11.620;2023-04-23T08:59:53;95818.91;;;12.18;100.00
46724;BME280;32463;48.298;11.620;2023-04-23T09:02:21;95824.34;;;12.23;100.00
46724;BME280;32463;48.298;11.620;2023-04-23T09:04:48;95816.97;;;12.41;100.00
46724;BME280;32463;48.298;11.620;2023-04-23T09:07:15;95824.81;;;12.62;100.00
46724;BME280;32463;48.298;11.620;2023-04-23T09:09:41;95814.72;;;12.74;100.00
46724;BME280;32463;48.298;11.620;2023-04-23T09:12:08;95813.56;;;12.98;100.00
46724;BME280;32463;48.298;11.620;2023-04-23T09:14:35;95814.56;;;13.18;100.00
46724;BME280;32463;48.298;11.620;2023-04-23T09:17:02;95810.06;;;13.55;100.00
46724;BME280;32463;48.298;11.620;2023-04-23T09:19:28;95810.28;;;13.88;100.00
46724;BME280;32463;48.298;11.620;2023-04-23T09:21:57;95797.63;;;14.26;100.00
46724;BME280;32463;48.298;11.620;2023-04-23T09:24:25;95801.44;;;14.77;100.00
46724;BME280;32463;48.298;11.620;2023-04-23T09:26:52;95797.88;;;14.92;100.00
46724;BME280;32463;48.298;11.620;2023-04-23T09:29:22;95798.25;;;14.89;100.00
46724;BME280;32463;48.298;11.620;2023-04-23T09:31:53;95785.00;;;14.83;100.00
46724;BME280;32463;48.298;11.620;2023-04-23T09:34:22;95785.44;;;15.20;100.00
46724;BME280;32463;48.298;11.620;2023-04-23T09:36:50;95786.63;;;15.37;100.00
46724;BME280;32463;48.298;11.620;2023-04-23T09:39:26;95780.19;;;15.46;100.00
46724;BME280;32463;48.298;11.620;2023-04-23T09:41:53;95788.25;;;15.52;100.00
46724;BME280;32463;48.298;11.620;2023-04-23T09:44:21;95778.19;;;15.35;100.00
46724;BME280;32463;48.298;11.620;2023-04-23T09:46:48;95781.41;;;15.04;100.00
46724;BME280;32463;48.298;11.620;2023-04-23T09:49:14;95771.34;;;15.61;100.00
46724;BME280;32463;48.298;11.620;2023-04-23T09:51:42;95769.31;;;15.89;100.00
46724;BME280;32463;48.298;11.620;2023-04-23T09:54:17;95761.44;;;16.47;100.00
46724;BME280;32463;48.298;11.620;2023-04-23T09:56:48;95766.59;;;16.60;100.00
46724;BME280;32463;48.298;11.620;2023-04-23T09:59:23;95761.19;;;16.17;100.00
46724;BME280;32463;48.298;11.620;2023-04-23T10:01:50;95759.47;;;16.36;100.00
46724;BME280;32463;48.298;11.620;2023-04-23T10:04:18;95757.34;;;16.20;100.00
46724;BME280;32463;48.298;11.620;2023-04-23T10:06:48;95756.47;;;15.68;100.00
46724;BME280;32463;48.298;11.620;2023-04-23T10:09:18;95766.72;;;15.76;100.00
46724;BME280;32463;48.298;11.620;2023-04-23T10:11:50;95756.66;;;15.86;100.00
46724;BME280;32463;48.298;11.620;2023-04-23T10:14:18;95752.25;;;16.31;100.00
46724;BME280;32463;48.298;11.620;2023-04-23T10:16:46;95750.91;;;16.60;100.00
46724;BME280;32463;48.298;11.620;2023-04-23T10:19:20;95746.16;;;16.44;100.00
46724;BME280;32463;48.298;11.620;2023-04-23T10:22:13;95742.03;;;16.61;100.00
46724;BME280;32463;48.298;11.620;2023-04-23T10:24:42;95739.94;;;16.38;100.00
46724;BME280;32463;48.298;11.620;2023-04-23T10:27:12;95743.94;;;15.96;100.00
46724;BME280;32463;48.298;11.620;2023-04-23T10:29:40;95745.25;;;15.47;100.00
46724;BME280;32463;48.298;11.620;2023-04-23T10:32:07;95730.53;;;15.73;100.00
46724;BME280;32463;48.298;11.620;2023-04-23T10:34:34;95742.22;;;15.64;100.00
46724;BME280;32463;48.298;11.620;2023-04-23T10:37:01;95737.59;;;15.66;100.00
46724;BME280;32463;48.298;11.620;2023-04-23T10:39:33;95746.03;;;15.61;100.00
46724;BME280;32463;48.298;11.620;2023-04-23T10:42:00;95729.56;;;15.61;100.00
46724;BME280;32463;48.298;11.620;2023-04-23T10:44:41;95735.97;;;15.71;100.00
46724;BME280;32463;48.298;11.620;2023-04-23T10:47:13;95732.81;;;15.23;100.00
46724;BME280;32463;48.298;11.620;2023-04-23T10:49:41;95743.84;;;14.99;100.00
46724;BME280;32463;48.298;11.620;2023-04-23T10:52:10;95726.56;;;15.37;100.00
46724;BME280;32463;48.298;11.620;2023-04-23T10:54:42;95727.75;;;15.41;100.00
46724;BME280;32463;48.298;11.620;2023-04-23T10:57:10;95724.31;;;15.61;100.00
46724;BME280;32463;48.298;11.620;2023-04-23T10:59:50;95718.31;;;15.40;100.00
46724;BME280;32463;48.298;11.620;2023-04-23T11:02:17;95719.09;;;15.61;100.00
46724;BME280;32463;48.298;11.620;2023-04-23T11:04:45;95711.88;;;15.49;100.00
46724;BME280;32463;48.298;11.620;2023-04-23T11:07:12;95700.41;;;15.64;100.00
46724;BME280;32463;48.298;11.620;2023-04-23T11:17:12;95691.59;;;17.29;100.00
46724;BME280;32463;48.298;11.620;2023-04-23T11:19:41;95692.47;;;17.66;100.00
46724;BME280;32463;48.298;11.620;2023-04-23T11:22:15;95677.31;;;17.86;100.00
46724;BME280;32463;48.298;11.620;2023-04-23T11:24:46;95681.78;;;18.75;97.00
46724;BME280;32463;48.298;11.620;2023-04-23T11:27:16;95668.66;;;18.34;95.03
46724;BME280;32463;48.298;11.620;2023-04-23T11:29:45;95670.63;;;19.38;85.32
46724;BME280;32463;48.298;11.620;2023-04-23T11:32:15;95659.69;;;19.93;75.38
46724;BME280;32463;48.298;11.620;2023-04-23T11:34:46;95664.50;;;20.25;72.39
46724;BME280;32463;48.298;11.620;2023-04-23T11:37:16;95668.63;;;21.44;71.87
46724;BME280;32463;48.298;11.620;2023-04-23T11:39:44;95656.91;;;22.17;64.90
46724;BME280;32463;48.298;11.620;2023-04-23T11:42:15;95658.78;;;22.76;62.38
46724;BME280;32463;48.298;11.620;2023-04-23T11:44:44;95658.97;;;22.69;60.94
46724;BME280;32463;48.298;11.620;2023-04-23T11:47:13;95649.25;;;23.91;54.91
46724;BME280;32463;48.298;11.620;2023-04-23T11:49:42;95645.66;;;23.18;56.43
46724;BME280;32463;48.298;11.620;2023-04-23T11:52:09;95648.44;;;22.15;56.76
46724;BME280;32463;48.298;11.620;2023-04-23T11:54:39;95641.34;;;21.34;58.35
46724;BME280;32463;48.298;11.620;2023-04-23T11:57:06;95634.13;;;22.11;58.96
46724;BME280;32463;48.298;11.620;2023-04-23T11:59:33;95636.72;;;22.87;56.85
46724;BME280;32463;48.298;11.620;2023-04-23T12:01:59;95621.47;;;22.99;54.59
46724;BME280;32463;48.298;11.620;2023-04-23T12:04:30;95619.03;;;22.61;55.60
46724;BME280;32463;48.298;11.620;2023-04-23T12:06:58;95608.66;;;24.73;52.80
46724;BME280;32463;48.298;11.620;2023-04-23T12:09:27;95596.88;;;24.18;51.29
46724;BME280;32463;48.298;11.620;2023-04-23T12:11:55;95597.41;;;24.10;50.32
46724;BME280;32463;48.298;11.620;2023-04-23T12:14:29;95599.28;;;24.10;50.47
46724;BME280;32463;48.298;11.620;2023-04-23T12:16:56;95584.47;;;23.46;53.30
46724;BME280;32463;48.298;11.620;2023-04-23T12:19:27;95586.09;;;24.56;49.05
46724;BME280;32463;48.298;11.620;2023-04-23T12:22:00;95577.13;;;23.59;49.29
46724;BME280;32463;48.298;11.620;2023-04-23T12:24:28;95579.06;;;23.26;48.97
46724;BME280;32463;48.298;11.620;2023-04-23T12:26:58;95587.03;;;23.36;49.19
46724;BME280;32463;48.298;11.620;2023-04-23T12:29:25;95575.19;;;24.22;46.92
46724;BME280;32463;48.298;11.620;2023-04-23T12:31:52;95566.78;;;24.96;46.49
46724;BME280;32463;48.298;11.620;2023-04-23T12:34:20;95564.47;;;26.18;44.45
46724;BME280;32463;48.298;11.620;2023-04-23T12:36:49;95568.91;;;25.83;42.78
46724;BME280;32463;48.298;11.620;2023-04-23T12:39:30;95564.34;;;25.89;44.01
46724;BME280;32463;48.298;11.620;2023-04-23T12:42:04;95569.41;;;24.96;44.60
46724;BME280;32463;48.298;11.620;2023-04-23T12:44:32;95558.53;;;24.92;44.08
46724;BME280;32463;48.298;11.620;2023-04-23T12:49:29;95548.72;;;24.47;44.50
46724;BME280;32463;48.298;11.620;2023-04-23T12:51:57;95540.97;;;24.00;44.07